Time;durP1;ratioP1;P1;durP2;ratioP2;P2;SDS_P1;SDS_P2;PMS_P1;PMS_P2;Temp;Humidity;BMP_temperature;BMP_pressure;BME280_temperature;BME280_humidity;BME280_pressure;Samples;Min_cycle;Max_cycle;Signal;HPM_P1;HPM_P2
2021/05/02 00:09:12;;;;;;;27.42;22.52;;;;;;;14.79;97.05;99284.30;1749804;79;22866;-46
2021/05/02 00:11:40;;;;;;;28.23;23.07;;;;;;;14.74;97.07;99286.48;1703863;81;20974;-46
2021/05/02 00:14:08;;;;;;;26.57;21.65;;;;;;;14.76;97.10;99295.41;1694646;83;21537;-51
2021/05/02 00:16:37;;;;;;;25.05;20.37;;;;;;;14.76;97.06;99282.70;1694839;83;21882;-51
2021/05/02 00:19:11;;;;;;;24.77;20.27;;;;;;;14.76;97.06;99281.83;1693667;82;21053;-49
2021/05/02 00:21:39;;;;;;;25.15;19.62;;;;;;;14.75;97.03;99278.22;1704247;83;20990;-51
2021/05/02 00:24:08;;;;;;;24.98;20.35;;;;;;;14.73;97.07;99271.19;1694494;83;21510;-49
2021/05/02 00:26:37;;;;;;;25.00;18.65;;;;;;;14.72;97.12;99262.19;1693776;83;21379;-50
2021/05/02 00:29:05;;;;;;;24.37;19.10;;;;;;;14.72;97.20;99261.32;1693503;83;21061;-51
2021/05/02 00:31:33;;;;;;;24.67;18.82;;;;;;;14.71;97.14;99254.16;1691105;83;21010;-50
2021/05/02 00:34:01;;;;;;;26.93;20.52;;;;;;;14.70;97.20;99241.55;1697306;82;21172;-49
2021/05/02 00:36:28;;;;;;;30.32;21.65;;;;;;;14.68;97.22;99245.25;1699026;83;21013;-50
2021/05/02 00:38:56;;;;;;;28.17;19.95;;;;;;;14.66;97.46;99241.80;1695595;83;21378;-50
2021/05/02 00:41:30;;;;;;;25.15;18.42;;;;;;;14.64;97.55;99238.31;1644346;83;21152;-50
2021/05/02 00:44:01;;;;;;;23.15;18.77;;;;;;;14.62;97.86;99240.29;1694163;83;20979;-50
2021/05/02 00:46:41;;;;;;;24.12;19.65;;;;;;;14.59;97.96;99250.50;1704936;83;21030;-49
2021/05/02 00:49:22;;;;;;;22.67;19.85;;;;;;;14.56;98.01;99240.75;1644719;85;21610;-50
2021/05/02 00:52:02;;;;;;;28.25;21.40;;;;;;;14.60;98.15;99225.98;1782603;78;22575;-50
2021/05/02 00:54:36;;;;;;;27.10;22.95;;;;;;;14.53;98.19;99226.05;1754123;80;21580;-49
2021/05/02 00:57:11;;;;;;;24.90;20.90;;;;;;;14.51;98.45;99221.23;1748264;80;21360;-49
2021/05/02 01:00:03;;;;;;;33.13;23.87;;;;;;;14.46;98.74;99234.25;1814181;77;22664;-50
2021/05/02 01:02:31;;;;;;;26.73;21.95;;;;;;;14.46;98.74;99234.25;1780678;80;21533;-46
2021/05/02 01:04:59;;;;;;;28.92;23.10;;;;;;;14.45;98.86;99231.16;1780821;80;21158;-48
2021/05/02 01:07:37;;;;;;;28.47;21.27;;;;;;;14.42;99.04;99228.66;1780615;80;21009;-47
2021/05/02 01:10:15;;;;;;;27.35;22.75;;;;;;;14.42;99.34;99224.59;1815121;76;22741;-46
2021/05/02 01:12:51;;;;;;;32.93;26.10;;;;;;;14.35;99.43;99216.55;1797621;78;20978;-46
2021/05/02 01:15:24;;;;;;;31.23;26.70;;;;;;;14.32;99.55;99216.27;1789801;77;21197;-46
2021/05/02 01:18:03;;;;;;;38.60;26.95;;;;;;;14.31;99.76;99213.68;1789513;79;21104;-51
2021/05/02 01:20:34;;;;;;;29.63;26.37;;;;;;;14.32;99.82;99224.90;1788926;78;20962;-50
2021/05/02 01:23:06;;;;;;;33.05;27.75;;;;;;;14.29;99.95;99221.94;1792579;79;20954;-50
2021/05/02 01:25:34;;;;;;;37.03;30.33;;;;;;;14.28;100.00;99224.77;1786285;77;20950;-49
2021/05/02 01:28:03;;;;;;;40.80;30.05;;;;;;;14.28;100.00;99222.06;1788467;77;22164;-50
2021/05/02 01:30:30;;;;;;;35.85;30.35;;;;;;;14.28;100.00;99222.06;1791508;78;20985;-50
2021/05/02 01:32:58;;;;;;;43.00;34.03;;;;;;;14.26;100.00;99221.29;1785629;77;21025;-50
2021/05/02 01:35:26;;;;;;;39.55;32.55;;;;;;;14.24;100.00;99215.98;1794308;78;21110;-49
2021/05/02 01:37:54;;;;;;;40.95;33.35;;;;;;;14.22;100.00;99214.34;1788608;77;21611;-48
2021/05/02 01:40:23;;;;;;;45.85;34.88;;;;;;;14.21;100.00;99209.91;1763992;79;22288;-47
2021/05/02 01:42:51;;;;;;;35.48;30.45;;;;;;;14.20;100.00;99208.19;1789330;78;21094;-47
2021/05/02 01:45:19;;;;;;;38.02;30.37;;;;;;;14.20;100.00;99209.05;1786607;78;21041;-47
2021/05/02 01:47:49;;;;;;;34.65;29.32;;;;;;;14.20;100.00;99210.90;1787228;77;21028;-48
2021/05/02 01:50:17;;;;;;;30.75;26.25;;;;;;;14.21;100.00;99209.91;1795014;78;21140;-49
2021/05/02 01:52:48;;;;;;;32.55;27.10;;;;;;;14.22;100.00;99208.92;1787547;77;21365;-50
2021/05/02 01:55:17;;;;;;;28.95;24.00;;;;;;;14.23;100.00;99206.62;1795779;78;20997;-49
2021/05/02 01:57:47;;;;;;;33.10;26.55;;;;;;;14.24;100.00;99200.20;1786642;78;21000;-50
2021/05/02 02:00:26;;;;;;;31.33;26.20;;;;;;;14.24;100.00;99201.56;1788127;77;21542;-51
2021/05/02 02:02:57;;;;;;;32.05;26.12;;;;;;;14.25;100.00;99200.58;1794040;77;21028;-50
2021/05/02 02:05:25;;;;;;;30.37;24.37;;;;;;;14.25;100.00;99197.38;1793099;77;21351;-47
2021/05/02 02:07:53;;;;;;;29.92;23.52;;;;;;;14.26;100.00;99195.03;1789657;77;21132;-48
2021/05/02 02:10:21;;;;;;;24.32;21.30;;;;;;;14.26;100.00;99192.81;1770237;78;21096;-49
2021/05/02 02:12:51;;;;;;;29.60;23.15;;;;;;;14.27;100.00;99187.75;1793648;77;21017;-49
2021/05/02 02:15:20;;;;;;;26.00;21.82;;;;;;;14.28;100.00;99188.16;1796930;78;25184;-48
2021/05/02 02:17:48;;;;;;;33.75;27.45;;;;;;;14.29;100.00;99187.17;1795932;78;21806;-50
2021/05/02 02:20:16;;;;;;;32.33;26.33;;;;;;;14.29;100.00;99188.03;1797418;78;20945;-50
2021/05/02 02:22:44;;;;;;;38.48;31.42;;;;;;;14.29;100.00;99187.17;1793238;78;21100;-50
2021/05/02 02:25:12;;;;;;;42.43;33.25;;;;;;;14.29;100.00;99183.97;1802257;77;20985;-50
2021/05/02 02:27:40;;;;;;;45.88;32.53;;;;;;;14.29;100.00;99184.46;1792745;78;21193;-47
2021/05/02 02:30:10;;;;;;;40.23;30.85;;;;;;;14.31;100.00;99182.48;1792014;78;22237;-48
2021/05/02 02:32:47;;;;;;;28.75;22.52;;;;;;;14.31;100.00;99183.84;1795308;78;21963;-48
2021/05/02 02:35:17;;;;;;;26.93;20.45;;;;;;;14.32;100.00;99181.50;1792729;78;21612;-48
2021/05/02 02:37:46;;;;;;;24.90;19.65;;;;;;;14.32;100.00;99185.56;1794739;78;21553;-48
2021/05/02 02:40:15;;;;;;;20.90;16.82;;;;;;;14.32;100.00;99181.50;1798989;78;21603;-48
2021/05/02 02:42:46;;;;;;;28.23;21.50;;;;;;;14.31;100.00;99175.21;1792996;78;21478;-48
2021/05/02 02:45:14;;;;;;;25.08;19.52;;;;;;;14.31;100.00;99181.12;1794519;78;21514;-48
2021/05/02 02:47:50;;;;;;;29.25;23.35;;;;;;;14.30;100.00;99177.55;1792777;78;21036;-48
2021/05/02 02:50:19;;;;;;;32.13;25.08;;;;;;;14.30;100.00;99166.70;1791929;78;21021;-47
2021/05/02 02:52:53;;;;;;;33.10;26.75;;;;;;;14.32;100.00;99161.16;1794032;78;20954;-49
2021/05/02 02:55:24;;;;;;;30.25;25.08;;;;;;;14.32;100.00;99159.80;1792956;78;21364;-48
2021/05/02 02:58:04;;;;;;;28.07;23.87;;;;;;;14.32;100.00;99158.44;1793202;78;28640;-49
2021/05/02 03:00:35;;;;;;;23.98;20.48;;;;;;;14.32;100.00;99153.02;1792125;78;20933;-48
2021/05/02 03:03:13;;;;;;;26.15;20.40;;;;;;;14.32;100.00;99164.73;1792049;78;21096;-48
2021/05/02 03:05:41;;;;;;;21.48;17.50;;;;;;;14.33;100.00;99161.06;1793582;78;21132;-48
2021/05/02 03:08:09;;;;;;;24.98;19.20;;;;;;;14.34;100.00;99159.22;1800647;77;21357;-47
2021/05/02 03:10:40;;;;;;;21.00;17.45;;;;;;;14.35;100.00;99158.23;1803534;77;20996;-48
2021/05/02 03:13:10;;;;;;;18.60;15.58;;;;;;;14.31;100.00;99156.72;1799283;77;21100;-47
2021/05/02 03:15:40;;;;;;;19.82;16.40;;;;;;;14.28;100.00;99170.03;1778844;77;21290;-48
2021/05/02 03:18:13;;;;;;;19.48;15.93;;;;;;;14.24;100.00;99177.16;1798889;78;21005;-49
2021/05/02 03:20:42;;;;;;;18.92;15.43;;;;;;;14.20;100.00;99177.00;1800869;77;21324;-48
2021/05/02 03:23:18;;;;;;;20.55;15.88;;;;;;;14.13;100.00;99176.10;1756065;78;21028;-49
2021/05/02 03:25:47;;;;;;;18.17;16.20;;;;;;;14.10;100.00;99182.23;1774177;77;21148;-49
2021/05/02 03:28:21;;;;;;;17.65;15.32;;;;;;;14.07;100.00;99179.27;1802996;78;21639;-49
2021/05/02 03:30:57;;;;;;;19.82;15.23;;;;;;;14.12;100.00;99170.31;1809921;78;22662;-48
2021/05/02 03:33:26;;;;;;;18.20;14.13;;;;;;;14.08;100.00;99170.64;1782302;78;20998;-48
2021/05/02 03:35:53;;;;;;;18.92;12.82;;;;;;;14.10;100.00;99160.05;1760790;79;21280;-49
2021/05/02 03:38:30;;;;;;;14.75;12.28;;;;;;;14.14;100.00;99162.91;1723964;79;21021;-49
2021/05/02 03:40:59;;;;;;;14.43;11.75;;;;;;;14.19;100.00;99165.78;1780131;79;21182;-56
2021/05/02 03:43:27;;;;;;;14.38;11.83;;;;;;;14.25;100.00;99168.03;1781573;77;20966;-56
2021/05/02 03:45:55;;;;;;;13.72;11.97;;;;;;;14.30;100.00;99162.63;1780351;77;20966;-55
2021/05/02 03:48:24;;;;;;;15.65;12.28;;;;;;;14.37;100.00;99157.61;1779114;79;21825;-55
2021/05/02 03:50:52;;;;;;;13.18;10.88;;;;;;;14.41;100.00;99165.89;1779184;77;21554;-54
2021/05/02 03:53:20;;;;;;;13.18;10.25;;;;;;;14.47;100.00;99170.89;1779926;77;21108;-56
2021/05/02 03:55:48;;;;;;;12.23;9.78;;;;;;;14.53;100.00;99170.42;1778594;78;21549;-55
2021/05/02 03:58:16;;;;;;;16.37;9.43;;;;;;;14.57;100.00;99170.56;1786515;77;20982;-54
2021/05/02 04:00:45;;;;;;;11.80;8.40;;;;;;;14.63;100.00;99176.02;1781069;77;21441;-56
2021/05/02 04:03:14;;;;;;;8.75;7.40;;;;;;;14.68;100.00;99179.25;1780606;77;21001;-55
2021/05/02 04:05:42;;;;;;;10.70;8.15;;;;;;;14.73;100.00;99178.90;1779125;77;21586;-55
2021/05/02 04:08:10;;;;;;;8.45;7.50;;;;;;;14.77;100.00;99183.98;1780073;78;21096;-55
2021/05/02 04:10:40;;;;;;;9.28;7.50;;;;;;;14.79;100.00;99179.29;1784010;77;20981;-55
2021/05/02 04:13:08;;;;;;;12.13;8.63;;;;;;;14.85;100.00;99172.52;1779012;77;22334;-52
2021/05/02 04:15:36;;;;;;;10.13;8.58;;;;;;;14.91;100.00;99170.69;1780692;79;21456;-49
2021/05/02 04:18:04;;;;;;;12.28;7.95;;;;;;;14.97;100.00;99171.59;1779398;78;21541;-50
2021/05/02 04:20:32;;;;;;;11.15;7.12;;;;;;;15.03;100.00;99161.61;1781967;78;21190;-50
2021/05/02 04:23:00;;;;;;;8.65;6.83;;;;;;;15.10;100.00;99157.91;1779171;77;21116;-50
2021/05/02 04:25:28;;;;;;;9.08;7.65;;;;;;;15.15;100.00;99158.42;1786888;77;22119;-54
2021/05/02 04:27:56;;;;;;;13.28;8.63;;;;;;;15.18;99.77;99156.34;1785091;77;21000;-54
2021/05/02 04:30:24;;;;;;;19.67;9.95;;;;;;;15.19;99.18;99158.06;1787643;79;20950;-56
2021/05/02 04:32:52;;;;;;;17.90;12.23;;;;;;;15.20;99.00;99148.05;1788306;77;21067;-56
2021/05/02 04:35:20;;;;;;;17.15;14.33;;;;;;;15.22;98.77;99151.50;1784726;79;20969;-57
2021/05/02 04:37:48;;;;;;;21.50;15.83;;;;;;;15.26;98.61;99154.85;1794846;77;22270;-50
2021/05/02 04:40:16;;;;;;;29.45;22.50;;;;;;;15.29;98.50;99151.41;1786261;77;20930;-50
2021/05/02 04:42:44;;;;;;;29.75;24.72;;;;;;;15.33;98.34;99142.50;1784948;77;21577;-52
2021/05/02 04:45:13;;;;;;;38.85;28.85;;;;;;;15.35;98.19;99137.83;1785853;77;21139;-50
2021/05/02 04:47:41;;;;;;;36.35;31.15;;;;;;;15.36;97.87;99140.91;1784575;77;21114;-50
2021/05/02 04:50:09;;;;;;;43.63;34.20;;;;;;;15.37;97.59;99144.00;1784954;77;21361;-50
2021/05/02 04:52:39;;;;;;;44.23;34.50;;;;;;;15.38;97.53;99137.57;1783597;79;20993;-50
2021/05/02 04:55:08;;;;;;;47.15;35.78;;;;;;;15.42;97.50;99137.70;1785378;79;21506;-51
2021/05/02 04:57:36;;;;;;;48.05;35.63;;;;;;;15.47;97.34;99144.99;1785421;79;21124;-50
2021/05/02 05:00:06;;;;;;;48.08;35.15;;;;;;;15.51;97.08;99149.70;1785158;77;21144;-50
2021/05/02 05:02:34;;;;;;;45.03;30.85;;;;;;;15.54;96.90;99153.02;1790404;79;21386;-51
2021/05/02 05:05:02;;;;;;;43.80;28.73;;;;;;;15.57;96.64;99148.70;1785334;77;21037;-49
2021/05/02 05:07:31;;;;;;;42.40;29.55;;;;;;;15.59;96.47;99149.44;1784732;77;21013;-50
2021/05/02 05:09:59;;;;;;;31.95;22.37;;;;;;;15.64;96.34;99151.81;1787875;79;20942;-50
2021/05/02 05:12:27;;;;;;;27.37;18.37;;;;;;;15.69;95.97;99150.95;1784101;79;21112;-55
2021/05/02 05:14:55;;;;;;;22.42;15.45;;;;;;;15.70;95.55;99144.02;1785131;77;21118;-56
2021/05/02 05:17:23;;;;;;;17.45;12.18;;;;;;;15.74;95.25;99143.78;1784778;79;20985;-56
2021/05/02 05:19:51;;;;;;;12.80;9.40;;;;;;;15.76;94.79;99141.80;1784940;77;20970;-59
2021/05/02 05:22:19;;;;;;;13.70;8.85;;;;;;;15.80;94.41;99148.72;1783570;79;21501;-55
2021/05/02 05:24:47;;;;;;;11.55;8.45;;;;;;;15.83;94.18;99148.48;1785645;79;21025;-60
2021/05/02 05:28:58;;;;;;;17.27;11.33;;;;;;;15.95;93.58;99148.83;1815266;77;22541;-46
2021/05/02 05:31:27;;;;;;;15.98;9.00;;;;;;;15.93;93.58;99147.61;1792202;78;21002;-46
2021/05/02 05:33:55;;;;;;;14.25;10.18;;;;;;;16.01;93.44;99149.69;1791886;78;21428;-46
2021/05/02 05:36:25;;;;;;;12.60;9.88;;;;;;;16.05;92.99;99157.11;1789370;78;20974;-46
2021/05/02 05:38:53;;;;;;;13.10;8.15;;;;;;;16.11;92.65;99147.94;1794498;78;20962;-47
2021/05/02 05:41:21;;;;;;;11.85;8.90;;;;;;;16.14;92.15;99144.98;1794507;78;20982;-50
2021/05/02 05:43:49;;;;;;;13.20;8.58;;;;;;;16.21;92.04;99143.96;1794529;78;20974;-50
2021/05/02 05:46:17;;;;;;;11.83;8.45;;;;;;;16.28;91.70;99148.39;1797825;78;21358;-48
2021/05/02 05:48:45;;;;;;;15.35;9.75;;;;;;;16.33;91.48;99146.15;1792992;78;21002;-49
2021/05/02 05:51:13;;;;;;;12.93;10.18;;;;;;;16.41;91.19;99146.39;1797504;78;20966;-49
2021/05/02 05:53:41;;;;;;;15.10;10.60;;;;;;;16.47;90.94;99137.70;1734181;81;21009;-49
2021/05/02 05:56:09;;;;;;;17.77;10.60;;;;;;;16.51;90.73;99139.14;1736766;81;21132;-49
2021/05/02 05:58:38;;;;;;;15.70;10.55;;;;;;;16.56;90.48;99148.28;1737885;81;21950;-50
2021/05/02 06:01:05;;;;;;;15.23;10.18;;;;;;;16.62;89.99;99144.57;1742374;81;21509;-50
2021/05/02 06:03:33;;;;;;;17.23;12.28;;;;;;;16.65;89.64;99138.84;1743753;81;20998;-49
2021/05/02 06:06:02;;;;;;;23.12;15.25;;;;;;;16.68;89.64;99134.52;1747362;81;21010;-49
2021/05/02 06:08:30;;;;;;;24.40;17.23;;;;;;;16.74;89.16;99135.88;1742622;81;21120;-49
2021/05/02 06:10:58;;;;;;;31.40;22.62;;;;;;;16.78;88.79;99131.91;1740349;81;21667;-49
2021/05/02 06:13:26;;;;;;;31.60;24.27;;;;;;;16.80;88.49;99130.41;1743684;81;21065;-49
2021/05/02 06:15:54;;;;;;;33.63;21.48;;;;;;;16.84;88.62;99125.06;1742492;81;21533;-48
2021/05/02 06:18:21;;;;;;;29.57;21.17;;;;;;;16.87;88.52;99117.98;1744952;81;21003;-48
2021/05/02 06:20:49;;;;;;;25.95;16.57;;;;;;;16.89;88.34;99124.17;1741729;81;21140;-49
2021/05/02 06:23:18;;;;;;;25.00;17.23;;;;;;;16.90;87.90;99115.00;1753195;81;21517;-48
2021/05/02 06:25:46;;;;;;;25.60;19.12;;;;;;;16.91;87.65;99116.72;1744036;81;21554;-50
2021/05/02 06:28:14;;;;;;;25.82;18.82;;;;;;;16.89;87.31;99119.59;1737309;81;21120;-48
2021/05/02 06:30:42;;;;;;;25.80;19.57;;;;;;;16.89;87.19;99116.86;1714175;81;21139;-45
2021/05/02 06:33:10;;;;;;;27.73;21.12;;;;;;;16.91;87.26;99111.27;1784356;79;21013;-46
2021/05/02 06:35:38;;;;;;;25.48;18.62;;;;;;;16.95;87.22;99112.74;1792540;79;22411;-46
2021/05/02 06:38:08;;;;;;;23.42;16.80;;;;;;;16.98;87.04;99112.45;1724847;82;20998;-46
2021/05/02 06:49:01;;;;;;;22.80;18.02;;;;;;;17.07;86.52;99115.75;1737948;79;38438;-50
2021/05/02 06:51:29;;;;;;;24.65;17.37;;;;;;;17.10;86.37;99110.52;1720920;82;21017;-49
2021/05/02 06:53:57;;;;;;;20.12;14.30;;;;;;;17.14;86.32;99111.98;1716458;82;21367;-49
2021/05/02 06:56:25;;;;;;;20.30;13.70;;;;;;;17.18;85.86;99122.98;1715767;82;21545;-50
2021/05/02 06:58:54;;;;;;;14.78;10.78;;;;;;;17.20;85.90;99133.23;1716167;82;21357;-51
2021/05/02 07:01:24;;;;;;;13.68;10.60;;;;;;;17.24;85.52;99127.89;1717284;81;21015;-52
2021/05/02 07:03:52;;;;;;;13.68;8.78;;;;;;;17.25;85.21;99129.11;1717878;83;21172;-52
2021/05/02 07:06:22;;;;;;;11.63;7.60;;;;;;;17.22;84.90;99138.94;1712208;83;21221;-52
2021/05/02 07:08:50;;;;;;;12.88;8.33;;;;;;;17.20;85.00;99146.87;1715877;83;21593;-51
2021/05/02 07:11:18;;;;;;;10.78;8.18;;;;;;;17.18;85.20;99160.63;1716470;82;21053;-51
2021/05/02 07:13:46;;;;;;;16.37;8.83;;;;;;;17.18;85.44;99163.36;1717939;82;21598;-52
2021/05/02 07:16:14;;;;;;;12.18;9.35;;;;;;;17.15;85.58;99143.21;1714614;82;21589;-51
2021/05/02 07:18:42;;;;;;;10.55;8.00;;;;;;;17.13;85.85;99139.73;1712905;81;22228;-51
2021/05/02 07:21:11;;;;;;;10.48;7.97;;;;;;;17.12;85.92;99133.92;1714820;81;21132;-51
2021/05/02 07:23:39;;;;;;;15.60;9.35;;;;;;;17.15;86.17;99145.94;1718004;82;21228;-51
2021/05/02 07:26:07;;;;;;;13.93;8.38;;;;;;;17.17;86.19;99150.73;1715216;82;21174;-50
2021/05/02 07:28:36;;;;;;;11.40;8.40;;;;;;;17.19;86.27;99137.83;1715435;83;20970;-50
2021/05/02 07:31:04;;;;;;;14.75;8.78;;;;;;;17.20;86.17;99136.83;1713037;81;21200;-49
2021/05/02 07:33:33;;;;;;;13.30;9.13;;;;;;;17.20;86.00;99140.05;1715546;81;21152;-49
2021/05/02 07:36:01;;;;;;;16.87;9.60;;;;;;;17.21;86.00;99142.67;1710482;81;21163;-49
2021/05/02 07:38:29;;;;;;;16.37;9.63;;;;;;;17.22;85.80;99136.22;1715427;82;21144;-49
2021/05/02 07:44:13;;;;;;;13.50;10.03;;;;;;;17.33;85.04;99127.59;1748378;79;22311;-49
2021/05/02 07:46:42;;;;;;;13.18;9.03;;;;;;;17.28;84.89;99123.91;1694901;82;21292;-49
2021/05/02 07:49:10;;;;;;;14.33;10.25;;;;;;;17.27;84.74;99123.05;1682433;82;21656;-50
2021/05/02 07:51:39;;;;;;;12.55;9.45;;;;;;;17.29;84.89;99125.63;1685858;82;21029;-49
2021/05/02 07:54:07;;;;;;;19.82;9.85;;;;;;;17.33;84.59;99127.59;1688199;82;21001;-51
2021/05/02 07:56:35;;;;;;;16.12;9.65;;;;;;;17.36;84.67;99121.86;1683777;84;21050;-52
2021/05/02 08:03:33;;;;;;;14.60;10.15;;;;;;;17.50;83.90;99117.42;1765803;78;22670;-52
2021/05/02 08:06:04;;;;;;;20.20;11.18;;;;;;;17.45;83.44;99120.55;1753843;78;21050;-52
2021/05/02 08:08:32;;;;;;;20.97;11.40;;;;;;;17.45;83.23;99119.19;1730708;81;21370;-50
2021/05/02 08:11:00;;;;;;;16.52;11.35;;;;;;;17.46;83.12;99114.59;1729237;81;21159;-57
2021/05/02 08:13:28;;;;;;;17.87;10.18;;;;;;;17.47;83.28;99113.59;1724898;81;21355;-56
2021/05/02 08:15:56;;;;;;;15.55;10.95;;;;;;;17.50;83.32;99114.69;1720897;81;21521;-56
2021/05/02 08:18:25;;;;;;;19.17;11.20;;;;;;;17.52;83.23;99115.41;1714772;80;20957;-53
2021/05/02 08:20:54;;;;;;;15.48;11.53;;;;;;;17.54;83.20;99109.33;1713887;80;21494;-52
2021/05/02 08:23:22;;;;;;;19.23;11.48;;;;;;;17.57;83.21;99109.05;1713094;80;21017;-53
2021/05/02 08:28:32;;;;;;;19.62;11.10;;;;;;;17.64;83.10;99093.02;1744857;79;22804;-59
2021/05/02 08:31:01;;;;;;;20.08;13.03;;;;;;;17.55;83.11;99092.83;1709482;80;20994;-52
2021/05/02 08:33:29;;;;;;;20.05;13.60;;;;;;;17.50;83.14;99094.24;1694867;82;21374;-48
2021/05/02 08:35:57;;;;;;;17.07;13.55;;;;;;;17.44;83.33;99097.52;1690923;82;21210;-48
2021/05/02 08:38:25;;;;;;;23.25;14.73;;;;;;;17.41;83.56;99087.73;1694561;82;21795;-48
2021/05/02 08:40:55;;;;;;;21.52;13.25;;;;;;;17.40;83.68;99087.88;1691661;82;21640;-48
2021/05/02 08:43:23;;;;;;;24.60;15.03;;;;;;;17.39;83.87;99090.25;1692330;82;21120;-49
2021/05/02 08:45:51;;;;;;;19.55;14.68;;;;;;;17.35;83.86;99084.70;1663631;83;22128;-48
2021/05/02 08:48:22;;;;;;;21.50;14.90;;;;;;;17.32;84.11;99082.27;1698353;82;21033;-48
2021/05/02 08:50:57;;;;;;;23.98;14.47;;;;;;;17.32;84.23;99086.36;1697991;82;21565;-49
2021/05/02 08:53:25;;;;;;;18.30;13.70;;;;;;;17.29;84.34;99078.80;1697991;82;20998;-48
2021/05/02 08:55:54;;;;;;;20.55;14.30;;;;;;;17.28;84.57;99077.08;1702008;82;21048;-49
2021/05/02 09:03:44;;;;;;;27.65;16.85;;;;;;;17.40;84.43;99057.90;1785473;77;22065;-49
2021/05/02 09:06:29;;;;;;;22.98;15.98;;;;;;;17.36;84.25;99057.80;1755826;80;21632;-50
2021/05/02 09:09:06;;;;;;;25.95;16.93;;;;;;;17.40;84.23;99053.81;1726071;81;21209;-49
2021/05/02 09:11:39;;;;;;;25.12;16.52;;;;;;;17.42;84.00;99059.50;1726485;81;21164;-48
2021/05/02 09:14:24;;;;;;;24.05;16.85;;;;;;;17.45;83.78;99055.13;1726620;81;20985;-49
2021/05/02 09:16:58;;;;;;;23.02;16.93;;;;;;;17.49;83.68;99057.08;1727125;81;20997;-49
2021/05/02 09:19:31;;;;;;;23.32;17.25;;;;;;;17.51;83.70;99049.61;1724614;81;20997;-49
2021/05/02 09:22:12;;;;;;;24.27;16.80;;;;;;;17.57;83.62;99044.11;1729022;80;21392;-50
2021/05/02 09:24:41;;;;;;;26.77;18.02;;;;;;;17.60;83.36;99042.48;1726481;81;21005;-49
2021/05/02 09:27:16;;;;;;;28.42;18.57;;;;;;;17.61;83.20;99045.06;1728266;80;21017;-48
2021/05/02 09:29:45;;;;;;;27.27;17.42;;;;;;;17.63;83.23;99042.19;1728601;80;21617;-49
2021/05/02 09:32:14;;;;;;;31.73;17.92;;;;;;;17.64;83.04;99040.70;1725179;81;21131;-49
2021/05/02 09:34:50;;;;;;;27.42;18.35;;;;;;;17.67;82.78;99041.77;1726051;80;21562;-48
2021/05/02 09:37:21;;;;;;;26.97;18.10;;;;;;;17.69;82.62;99049.33;1725127;80;21102;-48
2021/05/02 09:39:56;;;;;;;27.10;18.42;;;;;;;17.72;82.63;99047.70;1728123;81;21064;-49
2021/05/02 09:42:35;;;;;;;27.07;17.92;;;;;;;17.73;82.64;99045.33;1724265;81;20993;-48
2021/05/02 09:45:08;;;;;;;23.98;18.23;;;;;;;17.73;82.53;99043.97;1724078;81;20994;-50
2021/05/02 09:47:41;;;;;;;32.45;18.92;;;;;;;17.70;82.46;99046.95;1722599;81;21250;-52
2021/05/02 09:50:18;;;;;;;26.70;18.20;;;;;;;17.66;82.41;99038.69;1723893;80;21010;-49
2021/05/02 09:52:55;;;;;;;33.78;20.00;;;;;;;17.63;82.68;99047.64;1724554;80;21663;-50
2021/05/02 09:55:45;;;;;;;28.67;20.55;;;;;;;17.61;82.83;99036.88;1731074;80;21001;-48
2021/05/02 09:58:19;;;;;;;41.10;29.98;;;;;;;17.60;83.05;99037.89;1724833;81;20981;-49
2021/05/02 10:00:57;;;;;;;50.73;36.28;;;;;;;17.59;83.19;99029.35;1725177;81;21362;-49
2021/05/02 10:03:25;;;;;;;44.15;32.70;;;;;;;17.54;83.43;99032.99;1717080;81;21014;-48
2021/05/02 10:06:03;;;;;;;53.58;36.65;;;;;;;17.51;83.88;99038.71;1712041;82;21029;-49
2021/05/02 10:08:33;;;;;;;50.60;38.73;;;;;;;17.46;84.22;99032.81;1721845;82;21502;-49
2021/05/02 10:11:04;;;;;;;57.27;39.40;;;;;;;17.43;84.53;99033.97;1713968;81;21140;-49
2021/05/02 10:13:34;;;;;;;46.42;34.98;;;;;;;17.40;84.89;99042.91;1710445;82;21739;-49
2021/05/02 10:19:13;;;;;;;35.88;21.95;;;;;;;17.39;85.56;99045.28;1792314;79;21988;-49
2021/05/02 10:21:41;;;;;;;31.15;22.07;;;;;;;17.28;85.53;99049.82;1763680;80;21623;-49
2021/05/02 10:24:10;;;;;;;32.13;21.12;;;;;;;17.26;85.59;99051.83;1754892;81;21203;-49
2021/05/02 10:26:37;;;;;;;33.83;21.80;;;;;;;17.23;85.85;99062.99;1755943;80;20997;-49
2021/05/02 10:29:08;;;;;;;31.55;20.95;;;;;;;17.24;86.06;99064.71;1752403;81;21059;-48
2021/05/02 10:31:41;;;;;;;29.65;19.70;;;;;;;17.24;85.84;99072.89;1755847;80;20977;-49
2021/05/02 10:34:32;;;;;;;26.85;19.12;;;;;;;17.24;85.95;99063.86;1754716;80;20969;-51
2021/05/02 10:37:27;;;;;;;31.17;20.62;;;;;;;17.24;86.17;99060.62;1754459;80;21351;-49
2021/05/02 10:40:23;;;;;;;28.60;22.32;;;;;;;17.29;86.59;99058.36;1805510;76;22744;-47
2021/05/02 10:42:53;;;;;;;33.90;20.57;;;;;;;17.24;86.82;99059.27;1774341;79;20970;-49
2021/05/02 10:45:45;;;;;;;33.30;23.05;;;;;;;17.25;87.20;99060.98;1773814;80;21360;-48
2021/05/02 10:48:28;;;;;;;32.83;25.92;;;;;;;17.22;87.34;99047.65;1771865;79;20985;-50
2021/05/02 10:50:56;;;;;;;30.88;25.77;;;;;;;17.19;87.80;99046.55;1769630;80;21134;-52
2021/05/02 10:53:25;;;;;;;43.38;27.85;;;;;;;17.18;88.31;99051.64;1769747;80;21530;-51
2021/05/02 10:55:59;;;;;;;36.15;24.72;;;;;;;17.19;88.66;99048.41;1772633;80;20962;-49
2021/05/02 10:58:38;;;;;;;32.85;22.65;;;;;;;17.19;89.09;99054.72;1771430;79;21336;-55
2021/05/02 11:01:26;;;;;;;43.00;33.45;;;;;;;17.26;89.88;99033.26;1801277;78;21800;-55
2021/05/02 11:03:55;;;;;;;51.55;36.90;;;;;;;17.21;90.04;99026.85;1785011;79;20968;-53
2021/05/02 11:06:43;;;;;;;43.40;33.55;;;;;;;17.20;90.38;99016.07;1781377;79;21347;-54
2021/05/02 11:11:53;;;;;;;35.58;27.05;;;;;;;17.19;90.60;99011.13;1805192;77;22822;-52
2021/05/02 11:14:27;;;;;;;43.68;32.78;;;;;;;17.13;90.64;99023.94;1748870;80;21565;-54
2021/05/02 11:17:05;;;;;;;38.23;31.17;;;;;;;17.12;90.58;99019.49;1781941;79;20954;-52
2021/05/02 11:19:39;;;;;;;36.90;27.32;;;;;;;17.14;90.86;99014.75;1748001;79;21029;-55
2021/05/02 11:22:08;;;;;;;47.50;34.03;;;;;;;17.22;91.01;99020.40;1740396;80;21053;-55
2021/05/02 11:24:46;;;;;;;40.25;31.82;;;;;;;17.29;90.92;99010.66;1782172;79;20974;-53
2021/05/02 11:27:23;;;;;;;50.17;33.00;;;;;;;17.39;90.66;99012.56;1757626;80;20974;-52
2021/05/02 11:30:03;;;;;;;35.83;26.15;;;;;;;17.47;90.36;99020.42;1765207;79;21369;-55
2021/05/02 11:32:40;;;;;;;39.78;28.55;;;;;;;17.54;90.19;99016.63;1746536;80;21033;-57
2021/05/02 11:35:16;;;;;;;33.30;24.65;;;;;;;17.61;89.90;99012.34;1785902;79;21042;-57
2021/05/02 11:38:03;;;;;;;33.58;21.15;;;;;;;17.66;89.04;99007.33;1782344;79;20994;-57
2021/05/02 11:40:34;;;;;;;25.32;19.73;;;;;;;17.68;88.42;99001.72;1750309;80;21702;-56
2021/05/02 11:43:25;;;;;;;29.30;21.40;;;;;;;17.62;88.41;99008.60;1735831;80;21780;-56
2021/05/02 11:46:01;;;;;;;31.30;21.12;;;;;;;17.58;88.82;99004.45;1738549;79;21155;-57
2021/05/02 11:48:35;;;;;;;32.60;22.45;;;;;;;17.57;89.23;98993.16;1761542;81;21009;-57
2021/05/02 11:51:08;;;;;;;29.98;19.02;;;;;;;17.58;89.26;98989.46;1761786;80;21144;-58
2021/05/02 11:53:48;;;;;;;28.07;20.15;;;;;;;17.56;89.74;98981.91;1782664;79;20978;-55
2021/05/02 11:56:25;;;;;;;29.55;19.23;;;;;;;17.53;90.09;98987.66;1738031;80;21453;-54
2021/05/02 11:59:03;;;;;;;35.43;21.95;;;;;;;17.47;90.62;98984.09;1760425;80;20966;-55
2021/05/02 12:04:14;;;;;;;28.42;19.67;;;;;;;17.43;91.39;98979.95;1788156;77;22701;-57
2021/05/02 12:06:42;;;;;;;30.92;20.82;;;;;;;17.33;92.25;98976.33;1760536;78;21797;-54
2021/05/02 12:09:15;;;;;;;36.93;22.60;;;;;;;17.25;92.75;98973.78;1762085;80;22230;-56
2021/05/02 12:11:45;;;;;;;28.70;20.05;;;;;;;17.18;93.34;98969.89;1752549;80;21010;-54
2021/05/02 12:14:23;;;;;;;28.57;20.23;;;;;;;17.12;93.74;98967.72;1759739;78;21083;-55
2021/05/02 12:16:55;;;;;;;33.70;21.17;;;;;;;17.07;94.16;98967.27;1754137;79;21367;-57